Time;durP1;ratioP1;P1;durP2;ratioP2;P2;SDS_P1;SDS_P2;PMS_P1;PMS_P2;Temp;Humidity;BMP_temperature;BMP_pressure;BME280_temperature;BME280_humidity;BME280_pressure;Samples;Min_cycle;Max_cycle;Signal;HPM_P1;HPM_P2
2021/08/27 00:00:32;;;;;;;8.05;2.10;;;15.30;99.90;;;;;;5069215;28;20170;-79
2021/08/27 00:02:57;;;;;;;11.55;3.08;;;15.30;99.90;;;;;;5069195;28;20051;-80
2021/08/27 00:05:23;;;;;;;18.20;3.25;;;15.10;99.90;;;;;;5052479;28;20039;-79
2021/08/27 00:07:49;;;;;;;14.52;2.90;;;15.10;99.90;;;;;;5052866;28;20036;-79
2021/08/27 00:10:14;;;;;;;10.63;2.30;;;15.00;99.90;;;;;;5068519;28;20040;-79
2021/08/27 00:12:40;;;;;;;15.00;2.72;;;15.00;99.90;;;;;;5070188;28;20041;-79
2021/08/27 00:15:08;;;;;;;12.00;2.35;;;14.90;99.90;;;;;;5052744;28;20047;-79
2021/08/27 00:17:33;;;;;;;15.35;2.83;;;15.00;99.90;;;;;;5053555;28;20049;-79
2021/08/27 00:20:00;;;;;;;15.23;2.85;;;14.90;99.90;;;;;;5069199;28;20086;-80
2021/08/27 00:22:27;;;;;;;21.92;3.30;;;14.90;99.90;;;;;;5052134;28;20110;-79
2021/08/27 00:24:53;;;;;;;15.82;3.38;;;14.90;99.90;;;;;;5052425;28;20080;-79
2021/08/27 00:27:19;;;;;;;9.23;2.30;;;14.80;99.90;;;;;;5068339;28;20070;-80
2021/08/27 00:29:45;;;;;;;16.67;2.88;;;14.80;99.90;;;;;;5068551;28;20032;-79
2021/08/27 00:32:11;;;;;;;12.55;2.25;;;14.80;99.90;;;;;;5069385;28;20068;-79
2021/08/27 00:34:36;;;;;;;15.52;2.97;;;14.70;99.90;;;;;;5069191;28;20495;-79
2021/08/27 00:37:04;;;;;;;16.27;2.90;;;14.80;99.90;;;;;;5067881;28;20483;-79
2021/08/27 00:39:30;;;;;;;9.70;2.47;;;14.70;99.90;;;;;;5069777;28;20081;-79
2021/08/27 00:41:56;;;;;;;13.73;2.90;;;14.80;99.90;;;;;;5051573;28;20087;-79
2021/08/27 00:44:21;;;;;;;15.63;2.85;;;14.90;99.90;;;;;;5052674;28;20064;-79
2021/08/27 00:46:47;;;;;;;15.27;2.58;;;14.90;99.90;;;;;;5067985;28;20464;-79
2021/08/27 00:49:13;;;;;;;10.23;2.30;;;15.10;99.90;;;;;;5069054;28;20045;-79
2021/08/27 00:51:39;;;;;;;13.70;3.10;;;15.10;99.90;;;;;;5068267;28;20116;-79
2021/08/27 00:54:05;;;;;;;10.07;2.22;;;15.20;99.90;;;;;;5051682;28;20161;-79
2021/08/27 00:56:31;;;;;;;15.50;3.72;;;15.20;99.90;;;;;;5051269;28;20491;-79
2021/08/27 00:58:58;;;;;;;11.27;2.70;;;15.30;99.90;;;;;;5052791;28;20484;-79
2021/08/27 01:01:25;;;;;;;14.70;2.38;;;15.30;99.90;;;;;;5051708;28;20048;-79
2021/08/27 01:03:51;;;;;;;11.27;2.47;;;15.40;99.90;;;;;;5050431;28;20029;-79
2021/08/27 01:06:40;;;;;;;11.52;2.33;;;15.40;99.90;;;;;;5067217;28;20105;-79
2021/08/27 01:09:28;;;;;;;13.20;2.60;;;15.40;99.90;;;;;;5066213;28;20800;-79
2021/08/27 01:12:02;;;;;;;13.82;2.92;;;15.40;99.90;;;;;;5068265;28;20060;-79
2021/08/27 01:14:50;;;;;;;14.02;3.05;;;15.40;99.90;;;;;;5065844;28;20044;-78
2021/08/27 01:17:21;;;;;;;13.77;2.90;;;15.30;99.90;;;;;;5067055;28;20123;-79
2021/08/27 01:20:00;;;;;;;12.15;2.38;;;15.30;99.90;;;;;;5062541;28;20501;-78
2021/08/27 01:22:43;;;;;;;21.83;3.05;;;15.40;99.90;;;;;;5067876;28;20097;-79
2021/08/27 01:25:13;;;;;;;21.63;3.13;;;15.40;99.90;;;;;;5064502;28;20215;-78
2021/08/27 01:27:39;;;;;;;18.88;3.45;;;15.50;99.90;;;;;;5068505;28;20084;-79
2021/08/27 01:30:17;;;;;;;13.05;2.50;;;15.50;99.90;;;;;;5068169;28;20430;-79
2021/08/27 01:33:16;;;;;;;20.02;2.88;;;15.50;99.90;;;;;;5068365;28;20444;-78
2021/08/27 01:35:46;;;;;;;10.55;2.42;;;15.50;99.90;;;;;;5068029;28;20052;-79
2021/08/27 01:38:14;;;;;;;8.85;2.20;;;15.50;99.90;;;;;;5050385;28;20049;-79
2021/08/27 01:40:42;;;;;;;13.40;2.33;;;15.50;99.90;;;;;;5066063;28;20119;-79
2021/08/27 01:43:11;;;;;;;9.65;2.25;;;15.40;99.90;;;;;;5050703;28;20491;-79
2021/08/27 01:45:39;;;;;;;9.77;2.03;;;15.40;99.90;;;;;;5050196;28;20112;-79
2021/08/27 01:48:06;;;;;;;12.30;2.05;;;15.20;99.90;;;;;;5068090;28;20062;-79
2021/08/27 01:50:36;;;;;;;11.27;2.22;;;15.30;99.90;;;;;;5050677;28;20044;-79
2021/08/27 01:53:04;;;;;;;10.65;2.55;;;15.30;99.90;;;;;;5067829;28;20062;-79
2021/08/27 01:55:30;;;;;;;11.20;1.98;;;15.30;99.90;;;;;;5067373;28;20072;-79
2021/08/27 01:57:56;;;;;;;13.23;2.10;;;15.20;99.90;;;;;;5067559;28;20351;-79
2021/08/27 02:00:24;;;;;;;7.55;1.90;;;15.30;99.90;;;;;;5066467;28;20047;-78
2021/08/27 02:02:51;;;;;;;19.73;2.53;;;15.30;99.90;;;;;;5068096;28;20222;-78
2021/08/27 02:05:18;;;;;;;11.02;2.83;;;15.40;99.90;;;;;;5067150;28;20033;-78
2021/08/27 02:07:46;;;;;;;11.50;2.83;;;15.40;99.90;;;;;;5065846;28;20040;-79
2021/08/27 02:10:12;;;;;;;7.20;1.98;;;15.40;99.90;;;;;;5049317;28;20087;-78
2021/08/27 02:12:38;;;;;;;14.48;3.00;;;15.50;99.90;;;;;;5050540;28;20130;-79
2021/08/27 02:15:05;;;;;;;13.18;2.83;;;15.60;99.90;;;;;;5068486;28;20147;-79
2021/08/27 02:17:31;;;;;;;12.05;2.83;;;15.60;99.90;;;;;;5067865;28;20041;-79
2021/08/27 02:19:58;;;;;;;14.15;2.70;;;15.60;99.90;;;;;;5066492;28;20127;-78
2021/08/27 02:22:31;;;;;;;11.93;1.70;;;15.50;99.90;;;;;;5067932;28;20076;-79
2021/08/27 02:25:03;;;;;;;12.30;2.28;;;15.50;99.90;;;;;;5045896;28;20064;-79
2021/08/27 02:27:30;;;;;;;7.82;1.77;;;15.50;99.90;;;;;;5066934;28;20059;-78
2021/08/27 02:29:58;;;;;;;8.80;2.15;;;15.50;99.90;;;;;;5051128;28;20091;-79
2021/08/27 02:32:26;;;;;;;7.32;1.90;;;15.40;99.90;;;;;;5050796;28;20106;-79
2021/08/27 02:34:52;;;;;;;6.90;1.60;;;15.30;99.90;;;;;;5050399;28;20379;-79
2021/08/27 02:37:22;;;;;;;12.57;1.85;;;15.30;99.90;;;;;;5065497;28;20136;-78
2021/08/27 02:39:47;;;;;;;11.52;1.75;;;15.20;99.90;;;;;;5051019;28;20123;-79
2021/08/27 02:42:14;;;;;;;7.05;1.80;;;15.20;99.90;;;;;;5050370;28;20127;-79
2021/08/27 02:44:39;;;;;;;10.43;2.05;;;15.10;99.90;;;;;;5066308;28;20442;-79
2021/08/27 02:47:05;;;;;;;12.10;1.98;;;15.20;99.90;;;;;;5050825;28;20126;-79
2021/08/27 02:49:31;;;;;;;11.43;2.40;;;15.10;99.90;;;;;;5067135;28;20093;-79
2021/08/27 02:52:26;;;;;;;10.35;2.00;;;15.00;99.90;;;;;;5050847;28;20048;-79
2021/08/27 02:55:11;;;;;;;12.90;2.90;;;14.90;99.90;;;;;;4992619;28;20073;-79
2021/08/27 02:57:47;;;;;;;8.25;2.03;;;14.90;99.90;;;;;;5007482;28;20053;-79
2021/08/27 03:00:13;;;;;;;11.90;2.15;;;14.90;99.90;;;;;;5012885;28;20399;-79
2021/08/27 03:02:40;;;;;;;12.07;2.75;;;14.80;99.90;;;;;;5010987;28;20037;-79
2021/08/27 03:05:19;;;;;;;8.43;2.17;;;14.90;99.90;;;;;;4996668;28;20116;-78
2021/08/27 03:07:53;;;;;;;10.63;2.60;;;14.80;99.90;;;;;;5010971;28;20164;-79
2021/08/27 03:10:39;;;;;;;12.43;2.40;;;14.80;99.90;;;;;;5012688;28;20052;-79
2021/08/27 03:13:12;;;;;;;13.20;2.85;;;14.80;99.90;;;;;;5010160;28;20405;-79
2021/08/27 03:15:52;;;;;;;8.60;2.10;;;14.80;99.90;;;;;;5003579;28;20099;-79
2021/08/27 03:18:19;;;;;;;9.30;2.47;;;14.80;99.90;;;;;;5012582;28;20053;-79
2021/08/27 03:20:55;;;;;;;14.80;2.47;;;14.80;99.90;;;;;;5013014;28;20037;-78
2021/08/27 03:23:22;;;;;;;13.82;2.47;;;14.80;99.90;;;;;;5013509;28;20029;-79
2021/08/27 03:25:49;;;;;;;14.63;2.72;;;14.60;99.90;;;;;;4995459;28;20053;-79
2021/08/27 03:28:20;;;;;;;11.60;2.95;;;14.70;99.90;;;;;;5012542;28;20079;-79
2021/08/27 03:30:51;;;;;;;14.48;2.90;;;14.60;99.90;;;;;;4994927;28;20072;-79
2021/08/27 03:33:18;;;;;;;13.55;3.35;;;14.60;99.90;;;;;;5048306;28;20052;-79
2021/08/27 03:35:47;;;;;;;12.35;3.10;;;14.60;99.90;;;;;;5053377;28;20044;-79
2021/08/27 03:38:13;;;;;;;17.10;2.80;;;14.50;99.90;;;;;;5051404;28;20044;-79
2021/08/27 03:40:39;;;;;;;17.98;3.00;;;14.70;99.90;;;;;;5070036;28;20051;-79
2021/08/27 03:43:07;;;;;;;20.10;3.47;;;14.60;99.90;;;;;;5069208;28;20094;-79
2021/08/27 03:45:33;;;;;;;25.30;4.13;;;14.60;99.90;;;;;;5070866;28;20063;-79
2021/08/27 03:48:00;;;;;;;13.05;3.33;;;14.60;99.90;;;;;;5068897;28;20044;-79
2021/08/27 03:50:26;;;;;;;13.25;2.72;;;14.50;99.90;;;;;;5052244;28;20040;-79
2021/08/27 03:52:53;;;;;;;12.32;2.63;;;14.70;99.90;;;;;;5053315;28;20074;-79
2021/08/27 03:55:21;;;;;;;14.15;3.40;;;14.60;99.90;;;;;;5068387;28;20044;-79
2021/08/27 03:57:49;;;;;;;19.52;3.60;;;14.70;99.90;;;;;;5053284;28;20109;-79
2021/08/27 04:00:19;;;;;;;19.23;3.08;;;14.80;99.90;;;;;;5065440;28;20048;-79
2021/08/27 04:02:51;;;;;;;13.57;2.63;;;14.80;99.90;;;;;;5052889;28;20108;-79
2021/08/27 04:05:19;;;;;;;12.27;2.58;;;14.80;99.90;;;;;;5052123;28;20037;-79
2021/08/27 04:07:46;;;;;;;16.42;3.40;;;14.80;99.90;;;;;;5052008;28;20041;-79
2021/08/27 04:10:13;;;;;;;11.85;2.65;;;14.70;99.90;;;;;;5066459;28;20045;-79
2021/08/27 04:12:40;;;;;;;15.27;2.70;;;14.70;99.90;;;;;;5046264;28;20061;-79
2021/08/27 04:15:12;;;;;;;21.67;3.47;;;14.70;99.90;;;;;;5067019;28;20471;-79
2021/08/27 04:17:39;;;;;;;17.02;3.35;;;14.70;99.90;;;;;;5045767;28;20468;-79
2021/08/27 04:20:08;;;;;;;17.63;3.13;;;14.70;99.90;;;;;;5050111;28;20363;-79
2021/08/27 04:22:34;;;;;;;12.52;3.45;;;14.70;99.90;;;;;;5067534;28;20091;-79
2021/08/27 04:24:59;;;;;;;16.13;2.88;;;14.70;99.90;;;;;;5065083;28;20056;-79
2021/08/27 04:27:25;;;;;;;14.10;3.22;;;14.70;99.90;;;;;;5067759;28;20047;-79
2021/08/27 04:29:52;;;;;;;18.08;3.58;;;14.70;99.90;;;;;;5068667;28;20137;-79
2021/08/27 04:32:19;;;;;;;19.33;3.78;;;14.70;99.90;;;;;;5068354;28;20040;-79
2021/08/27 04:34:45;;;;;;;14.30;3.50;;;14.70;99.90;;;;;;5051647;28;20131;-79
2021/08/27 04:37:10;;;;;;;15.00;2.88;;;14.60;99.90;;;;;;5047588;28;20192;-80
2021/08/27 04:39:36;;;;;;;12.40;3.08;;;14.60;99.90;;;;;;5054998;28;20033;-79
2021/08/27 04:42:03;;;;;;;12.00;2.85;;;14.70;99.90;;;;;;5039223;28;20049;-78
2021/08/27 04:44:29;;;;;;;15.88;2.72;;;14.80;99.90;;;;;;5060720;28;20079;-79
2021/08/27 04:46:55;;;;;;;19.17;2.88;;;14.80;99.90;;;;;;5058969;28;20052;-79
2021/08/27 04:49:21;;;;;;;17.73;2.70;;;14.80;99.90;;;;;;5048310;28;20044;-78
2021/08/27 04:51:47;;;;;;;10.43;2.72;;;14.90;99.90;;;;;;5057641;28;20127;-78
2021/08/27 04:54:12;;;;;;;11.45;2.58;;;14.90;99.90;;;;;;5045815;28;20099;-78
2021/08/27 04:56:38;;;;;;;14.00;2.00;;;15.00;99.90;;;;;;5054629;28;20049;-78
2021/08/27 04:59:04;;;;;;;15.77;2.40;;;15.00;99.90;;;;;;5059652;28;20041;-79
2021/08/27 05:01:30;;;;;;;7.80;1.98;;;14.90;99.90;;;;;;5059141;28;20094;-79
2021/08/27 05:03:55;;;;;;;6.47;1.55;;;15.00;99.90;;;;;;5040625;28;20040;-78
2021/08/27 05:06:21;;;;;;;5.90;2.03;;;15.00;99.90;;;;;;5036809;28;20057;-79
2021/08/27 05:08:47;;;;;;;8.35;1.45;;;14.90;99.90;;;;;;5060594;28;20131;-78
2021/08/27 05:11:12;;;;;;;8.52;1.67;;;14.80;99.90;;;;;;5064608;28;20043;-78
2021/08/27 05:13:38;;;;;;;10.25;1.67;;;14.80;99.90;;;;;;5059791;28;20048;-78
2021/08/27 05:16:04;;;;;;;11.10;1.77;;;14.80;99.90;;;;;;5041940;28;20111;-78
2021/08/27 05:18:30;;;;;;;17.08;2.33;;;14.80;99.90;;;;;;5058705;28;20044;-78
2021/08/27 05:20:57;;;;;;;11.07;2.58;;;14.80;99.90;;;;;;5060879;28;20044;-78
2021/08/27 05:23:23;;;;;;;12.68;2.75;;;14.80;99.90;;;;;;5043204;28;20036;-78
2021/08/27 05:25:49;;;;;;;16.67;2.70;;;15.00;99.90;;;;;;5057294;28;20048;-78
2021/08/27 05:28:15;;;;;;;15.10;2.33;;;15.00;99.90;;;;;;5051247;28;20048;-78
2021/08/27 05:30:41;;;;;;;22.13;3.10;;;15.00;99.90;;;;;;5067922;28;20070;-78
2021/08/27 05:33:06;;;;;;;20.85;3.40;;;15.10;99.90;;;;;;5064262;28;20387;-79
2021/08/27 05:35:32;;;;;;;15.20;2.53;;;15.10;99.90;;;;;;5050593;28;20365;-78
2021/08/27 05:37:58;;;;;;;15.65;2.80;;;15.20;99.90;;;;;;5067636;28;20033;-78
2021/08/27 05:40:24;;;;;;;19.10;3.20;;;15.20;99.90;;;;;;5067022;28;20084;-78
2021/08/27 05:42:49;;;;;;;16.52;3.00;;;15.30;99.90;;;;;;5050736;28;20052;-79
2021/08/27 05:45:15;;;;;;;10.43;1.90;;;15.30;99.90;;;;;;5068825;28;20040;-78
2021/08/27 05:47:42;;;;;;;12.15;2.58;;;15.40;99.90;;;;;;5050868;28;20087;-79
2021/08/27 05:50:09;;;;;;;19.10;2.80;;;15.40;99.90;;;;;;5068655;28;20119;-78
2021/08/27 05:52:35;;;;;;;15.40;2.75;;;15.50;99.90;;;;;;5051720;28;20383;-77
2021/08/27 05:55:01;;;;;;;15.75;2.60;;;15.50;99.90;;;;;;5067954;28;20040;-76
2021/08/27 05:57:28;;;;;;;11.63;2.60;;;15.50;99.90;;;;;;5047932;28;20074;-79
2021/08/27 05:59:54;;;;;;;9.02;2.35;;;15.50;99.90;;;;;;5050565;28;20059;-80
2021/08/27 06:02:20;;;;;;;9.38;2.40;;;15.60;99.90;;;;;;5068621;28;20472;-77
2021/08/27 06:04:45;;;;;;;11.90;2.55;;;15.50;99.90;;;;;;5061612;28;20442;-77
2021/08/27 06:07:11;;;;;;;12.38;2.58;;;15.60;99.90;;;;;;5049848;28;20044;-77
2021/08/27 06:09:37;;;;;;;17.83;2.63;;;15.80;99.90;;;;;;5067619;28;20041;-76
2021/08/27 06:12:03;;;;;;;12.63;2.30;;;15.80;99.90;;;;;;5066825;28;20048;-77
2021/08/27 06:14:29;;;;;;;10.60;1.90;;;15.90;99.90;;;;;;5051374;28;20047;-77
2021/08/27 06:16:54;;;;;;;12.38;2.35;;;15.90;99.90;;;;;;5042106;28;20485;-80
2021/08/27 06:19:20;;;;;;;10.90;2.40;;;16.00;99.90;;;;;;5058190;28;20053;-81
2021/08/27 06:21:46;;;;;;;14.13;2.33;;;16.00;99.90;;;;;;5040927;28;20028;-79
2021/08/27 06:24:12;;;;;;;13.40;1.90;;;16.10;99.90;;;;;;5043153;28;20496;-79
2021/08/27 06:26:37;;;;;;;11.40;2.17;;;16.10;99.90;;;;;;5057747;28;20082;-80
2021/08/27 06:29:04;;;;;;;12.35;2.30;;;16.10;99.90;;;;;;5053425;28;20055;-79
2021/08/27 06:31:34;;;;;;;6.75;1.90;;;16.20;99.90;;;;;;5057482;28;20039;-85
2021/08/27 06:34:00;;;;;;;12.82;2.20;;;15.90;99.90;;;;;;5069611;28;20068;-82
2021/08/27 06:36:26;;;;;;;13.13;2.30;;;15.70;99.90;;;;;;5054452;28;20110;-80
2021/08/27 06:38:51;;;;;;;8.88;2.08;;;15.60;99.90;;;;;;5055459;28;20064;-82
2021/08/27 06:41:17;;;;;;;9.60;1.90;;;15.40;99.90;;;;;;5070185;28;20560;-81
2021/08/27 06:43:45;;;;;;;15.07;2.38;;;15.60;99.90;;;;;;5054455;28;20044;-80
2021/08/27 06:46:22;;;;;;;11.65;2.08;;;15.60;99.90;;;;;;5071965;28;20060;-80
2021/08/27 06:48:48;;;;;;;14.10;1.98;;;15.60;99.90;;;;;;5054412;28;20055;-79
2021/08/27 06:51:14;;;;;;;10.45;2.05;;;15.70;99.90;;;;;;5053490;28;20100;-78
2021/08/27 06:53:40;;;;;;;10.65;1.90;;;15.70;99.90;;;;;;5071811;28;20039;-79
2021/08/27 06:56:09;;;;;;;11.27;2.20;;;15.90;99.90;;;;;;5052692;28;20044;-84
2021/08/27 06:58:35;;;;;;;10.38;1.70;;;15.90;99.90;;;;;;5054606;28;20070;-83
2021/08/27 07:01:01;;;;;;;13.80;2.20;;;16.00;99.90;;;;;;5076488;28;20056;-83
2021/08/27 07:03:27;;;;;;;13.68;2.03;;;16.10;99.90;;;;;;5072149;28;20059;-83
2021/08/27 07:05:52;;;;;;;11.25;1.73;;;16.30;99.90;;;;;;5061267;28;20056;-83
2021/08/27 07:08:18;;;;;;;15.70;2.17;;;16.30;99.90;;;;;;5058133;28;20342;-82
2021/08/27 07:10:44;;;;;;;5.65;1.63;;;16.50;99.90;;;;;;5064228;28;20069;-83
2021/08/27 07:13:10;;;;;;;9.25;1.52;;;16.50;99.90;;;;;;5059983;28;20047;-83
2021/08/27 07:15:36;;;;;;;13.70;1.70;;;16.50;99.90;;;;;;5069084;28;20036;-78
2021/08/27 07:18:03;;;;;;;12.60;1.88;;;16.40;99.90;;;;;;5052118;28;20420;-81
2021/08/27 07:20:29;;;;;;;15.55;2.45;;;16.30;99.90;;;;;;5055096;28;20043;-79
2021/08/27 07:22:56;;;;;;;10.00;2.10;;;16.20;99.90;;;;;;5054607;28;20459;-82
2021/08/27 07:25:22;;;;;;;11.15;1.42;;;15.80;99.90;;;;;;5071186;28;20502;-80
2021/08/27 07:27:49;;;;;;;11.35;2.17;;;15.60;99.90;;;;;;5054491;28;20048;-79
2021/08/27 07:30:16;;;;;;;7.18;1.70;;;15.50;99.90;;;;;;5054499;28;20052;-80
2021/08/27 07:32:42;;;;;;;7.18;1.60;;;15.30;99.90;;;;;;5054315;28;20087;-79
2021/08/27 07:35:08;;;;;;;7.55;1.67;;;15.10;99.90;;;;;;5070361;28;20469;-78
2021/08/27 07:37:36;;;;;;;11.32;2.13;;;15.10;99.90;;;;;;5070159;28;20048;-78
2021/08/27 07:40:01;;;;;;;7.68;1.67;;;15.00;99.90;;;;;;5070631;28;20076;-78
2021/08/27 07:42:27;;;;;;;10.88;2.20;;;15.10;99.90;;;;;;5068520;28;20071;-78
2021/08/27 07:44:53;;;;;;;10.40;2.08;;;15.10;99.90;;;;;;5052837;28;20156;-78
2021/08/27 07:47:19;;;;;;;15.55;2.78;;;15.30;99.90;;;;;;5070385;28;20059;-78
2021/08/27 07:49:44;;;;;;;11.88;2.45;;;15.50;99.90;;;;;;5053524;28;20048;-78
2021/08/27 07:52:10;;;;;;;15.50;3.20;;;15.60;99.90;;;;;;5053862;28;20489;-78
2021/08/27 07:54:36;;;;;;;17.02;2.90;;;15.70;99.90;;;;;;5070764;28;20056;-78
2021/08/27 07:57:01;;;;;;;18.35;2.90;;;15.80;99.90;;;;;;5052910;28;20086;-78
2021/08/27 07:59:27;;;;;;;18.08;3.38;;;15.90;99.90;;;;;;5070468;28;20153;-78
2021/08/27 08:01:52;;;;;;;22.65;3.53;;;16.00;99.90;;;;;;5070542;28;20044;-78
2021/08/27 08:04:18;;;;;;;14.85;2.83;;;16.00;99.90;;;;;;5054651;28;20048;-78
2021/08/27 08:06:44;;;;;;;23.50;3.17;;;16.10;99.90;;;;;;5069662;28;20044;-78
2021/08/27 08:09:10;;;;;;;13.50;2.67;;;16.20;99.90;;;;;;5054179;28;20055;-78
2021/08/27 08:11:36;;;;;;;15.77;2.40;;;16.20;99.90;;;;;;5069018;28;20352;-78
2021/08/27 08:14:03;;;;;;;12.25;2.72;;;16.40;99.90;;;;;;5070269;28;20056;-78
2021/08/27 08:16:28;;;;;;;18.00;2.75;;;16.50;99.90;;;;;;5054084;28;20052;-78
2021/08/27 08:18:54;;;;;;;11.75;2.65;;;16.60;99.90;;;;;;5070545;28;20046;-78
2021/08/27 08:21:23;;;;;;;6.20;2.17;;;16.90;99.90;;;;;;5070176;28;20040;-78
2021/08/27 08:23:53;;;;;;;7.80;2.30;;;16.90;99.90;;;;;;5070314;28;20047;-78
2021/08/27 08:26:20;;;;;;;15.48;2.97;;;16.90;99.90;;;;;;5051388;28;20352;-78
2021/08/27 08:28:47;;;;;;;12.57;2.80;;;17.00;99.90;;;;;;5069911;28;20040;-78
2021/08/27 08:31:18;;;;;;;21.23;3.33;;;17.00;99.90;;;;;;5062234;28;20087;-78
2021/08/27 08:33:44;;;;;;;11.43;2.25;;;17.00;99.90;;;;;;5068483;28;20044;-80
2021/08/27 08:36:10;;;;;;;11.35;2.58;;;17.10;99.90;;;;;;5052146;28;20048;-79
2021/08/27 08:38:36;;;;;;;7.43;2.10;;;17.10;99.90;;;;;;5070115;28;20475;-78
2021/08/27 08:41:04;;;;;;;14.10;2.80;;;17.30;99.90;;;;;;5052609;28;20089;-78
2021/08/27 08:43:29;;;;;;;12.07;2.53;;;17.20;99.90;;;;;;5069163;28;20046;-79
2021/08/27 08:45:56;;;;;;;11.65;2.60;;;17.20;99.90;;;;;;5065104;28;20116;-78
2021/08/27 08:48:23;;;;;;;13.18;2.67;;;17.30;99.90;;;;;;5068785;28;20098;-77
2021/08/27 08:50:49;;;;;;;14.60;2.70;;;17.60;99.90;;;;;;5050793;28;20079;-77
2021/08/27 08:53:17;;;;;;;11.38;2.65;;;17.80;99.90;;;;;;5050374;28;20053;-77
2021/08/27 08:55:44;;;;;;;11.52;2.38;;;18.00;99.90;;;;;;5066315;28;20040;-77
2021/08/27 08:58:09;;;;;;;13.10;2.13;;;17.90;99.90;;;;;;5036611;28;20101;-76
2021/08/27 09:00:37;;;;;;;14.82;3.10;;;17.80;99.90;;;;;;5053121;28;20059;-78
2021/08/27 09:03:04;;;;;;;9.02;2.55;;;17.80;99.90;;;;;;5069957;28;20052;-78
2021/08/27 09:05:29;;;;;;;12.63;2.60;;;17.90;99.90;;;;;;5052550;28;20105;-78
2021/08/27 09:07:55;;;;;;;11.15;2.15;;;17.70;99.90;;;;;;5065309;28;20119;-78
2021/08/27 09:10:21;;;;;;;16.98;2.95;;;17.50;99.90;;;;;;5052050;28;20201;-79
2021/08/27 09:12:48;;;;;;;11.98;2.55;;;17.30;99.90;;;;;;5068852;28;20040;-81
2021/08/27 09:15:16;;;;;;;12.18;2.78;;;17.50;99.90;;;;;;5050250;28;20052;-79
2021/08/27 09:17:48;;;;;;;11.10;2.17;;;17.70;99.90;;;;;;5068858;28;20063;-78
2021/08/27 09:20:17;;;;;;;13.25;3.05;;;17.80;99.90;;;;;;5061240;28;20371;-83
2021/08/27 09:22:44;;;;;;;13.30;2.55;;;17.80;99.90;;;;;;5068811;28;20064;-82
2021/08/27 09:25:11;;;;;;;10.23;2.50;;;17.80;99.90;;;;;;5046304;28;20063;-80
2021/08/27 09:28:03;;;;;;;9.60;2.30;;;18.00;99.90;;;;;;5062504;28;20477;-78
2021/08/27 09:30:30;;;;;;;8.98;2.30;;;18.10;99.90;;;;;;5067962;28;20048;-77
2021/08/27 09:33:05;;;;;;;16.83;2.40;;;18.00;99.90;;;;;;5069070;28;20044;-77
2021/08/27 09:35:31;;;;;;;12.45;2.67;;;18.10;99.90;;;;;;5068112;28;20057;-77
2021/08/27 09:37:57;;;;;;;7.22;2.00;;;18.30;99.90;;;;;;5069050;28;20056;-77
2021/08/27 11:14:32;;;;;;;10.90;2.23;;;18.20;99.90;;;;;;5051017;27;1345909;-80
2021/08/27 11:17:00;;;;;;;12.27;2.35;;;18.50;99.90;;;;;;5052190;28;20294;-79
2021/08/27 11:19:28;;;;;;;9.30;1.90;;;18.50;99.90;;;;;;5065278;28;20369;-81
2021/08/27 11:22:19;;;;;;;10.40;2.30;;;18.40;99.90;;;;;;5047784;28;20047;-80
2021/08/27 11:25:09;;;;;;;11.73;2.03;;;18.40;99.90;;;;;;5052281;28;20052;-82
2021/08/27 11:27:36;;;;;;;11.93;2.45;;;18.50;99.90;;;;;;5039340;28;20115;-79
2021/08/27 11:30:31;;;;;;;8.07;2.08;;;18.60;99.90;;;;;;5066393;28;20044;-82
2021/08/27 11:32:58;;;;;;;7.43;1.97;;;18.80;99.90;;;;;;5063691;28;20075;-79
2021/08/27 11:35:24;;;;;;;12.20;2.72;;;18.70;99.90;;;;;;5065040;28;20044;-78
2021/08/27 11:37:59;;;;;;;9.70;2.40;;;18.50;99.90;;;;;;5064195;28;20044;-78
2021/08/27 11:40:25;;;;;;;10.18;2.38;;;18.40;99.90;;;;;;5065218;28;20040;-78
2021/08/27 11:42:56;;;;;;;16.00;2.50;;;18.40;99.90;;;;;;5066952;28;20105;-79
2021/08/27 11:45:25;;;;;;;12.27;2.60;;;18.30;99.90;;;;;;5039698;28;20044;-80
2021/08/27 11:47:58;;;;;;;15.60;2.78;;;18.80;99.90;;;;;;5064994;28;20028;-82
2021/08/27 11:50:40;;;;;;;11.80;1.83;;;19.00;99.90;;;;;;5066398;28;20073;-80
2021/08/27 11:53:07;;;;;;;6.50;1.77;;;18.80;99.90;;;;;;5049666;28;20487;-79
2021/08/27 11:55:43;;;;;;;8.98;2.35;;;18.90;99.90;;;;;;5066487;28;20044;-77
2021/08/27 11:58:10;;;;;;;12.45;2.35;;;18.90;99.90;;;;;;5062784;28;20116;-77
2021/08/27 12:00:41;;;;;;;12.32;2.60;;;18.70;99.90;;;;;;5067527;28;20036;-81
2021/08/27 12:03:11;;;;;;;11.77;2.80;;;18.80;99.90;;;;;;5044251;28;20037;-81
2021/08/27 12:05:37;;;;;;;12.38;2.55;;;18.90;99.90;;;;;;5043685;28;20032;-81
2021/08/27 12:08:11;;;;;;;8.95;1.92;;;19.10;99.90;;;;;;5034791;28;20068;-80
2021/08/27 12:10:39;;;;;;;10.02;1.90;;;19.00;99.90;;;;;;5044550;28;20625;-79
2021/08/27 12:13:07;;;;;;;12.77;2.78;;;18.90;99.90;;;;;;5030019;28;21428;-78
2021/08/27 12:15:39;;;;;;;7.15;1.95;;;18.90;99.90;;;;;;5030252;28;20057;-79
2021/08/27 12:18:12;;;;;;;7.68;1.92;;;19.00;99.90;;;;;;5034165;28;20063;-79
2021/08/27 12:20:43;;;;;;;10.07;2.10;;;19.10;99.90;;;;;;5017043;28;20041;-79
2021/08/27 12:23:17;;;;;;;3.70;1.65;;;19.30;99.90;;;;;;5018257;28;20080;-78
2021/08/27 12:25:59;;;;;;;8.73;2.20;;;19.40;99.90;;;;;;5019853;28;20379;-78
2021/08/27 12:28:38;;;;;;;11.38;1.88;;;19.50;99.90;;;;;;5033895;28;20116;-79
2021/08/27 12:31:08;;;;;;;9.70;2.63;;;19.60;99.90;;;;;;5031679;28;20067;-78
2021/08/27 12:33:38;;;;;;;11.50;2.20;;;19.30;99.90;;;;;;5033599;28;20045;-80
2021/08/27 12:36:05;;;;;;;10.05;2.25;;;19.20;99.90;;;;;;5052668;28;20464;-77
2021/08/27 12:38:31;;;;;;;10.85;2.03;;;19.30;99.90;;;;;;5031300;28;20124;-80
2021/08/27 12:41:19;;;;;;;15.38;2.65;;;19.30;99.90;;;;;;5032697;28;20120;-77
2021/08/27 12:43:45;;;;;;;14.15;2.80;;;19.20;99.90;;;;;;5027652;28;20045;-79
2021/08/27 12:46:29;;;;;;;13.05;2.28;;;18.90;99.90;;;;;;5050901;28;20041;-78
2021/08/27 12:49:31;;;;;;;12.73;2.13;;;19.00;99.90;;;;;;5028523;28;20514;-78
2021/08/27 12:51:58;;;;;;;9.68;2.13;;;18.90;99.90;;;;;;4919580;29;20167;-78
2021/08/27 12:54:25;;;;;;;9.15;2.22;;;19.00;99.90;;;;;;4936745;28;20051;-77
2021/08/27 12:57:02;;;;;;;9.65;1.73;;;19.00;99.90;;;;;;4941315;28;20047;-76
2021/08/27 12:59:28;;;;;;;13.77;2.60;;;18.90;99.90;;;;;;4950516;28;20051;-77
2021/08/27 13:01:55;;;;;;;9.60;2.05;;;18.80;99.90;;;;;;4935208;29;20138;-78
2021/08/27 13:04:22;;;;;;;9.40;1.80;;;18.90;99.90;;;;;;4932922;29;20154;-78
2021/08/27 13:06:52;;;;;;;17.10;2.60;;;18.90;99.90;;;;;;4934722;28;20050;-77
2021/08/27 13:09:28;;;;;;;12.95;2.42;;;18.90;99.90;;;;;;4934490;29;20110;-76
2021/08/27 13:11:56;;;;;;;11.15;2.00;;;18.90;99.90;;;;;;4936486;28;20043;-78
2021/08/27 13:14:30;;;;;;;10.68;2.40;;;18.80;99.90;;;;;;4935020;29;20101;-75
2021/08/27 13:17:07;;;;;;;13.00;2.60;;;19.10;99.90;;;;;;4940022;28;20046;-77
2021/08/27 13:19:44;;;;;;;12.70;2.85;;;19.20;99.90;;;;;;4949473;28;20537;-77
2021/08/27 13:22:12;;;;;;;6.80;1.80;;;19.50;99.90;;;;;;4933952;29;20386;-77
2021/08/27 13:24:38;;;;;;;10.40;1.77;;;19.50;99.90;;;;;;4921979;28;20113;-82
2021/08/27 13:27:04;;;;;;;8.60;1.85;;;19.70;99.90;;;;;;4994153;28;20045;-82
2021/08/27 13:29:30;;;;;;;10.80;1.98;;;19.70;99.90;;;;;;5048878;28;20147;-77
2021/08/27 13:31:56;;;;;;;9.77;2.05;;;19.60;99.90;;;;;;5013451;28;20518;-78
2021/08/27 13:34:22;;;;;;;10.27;2.05;;;19.70;99.90;;;;;;5014061;28;20100;-78
2021/08/27 13:36:47;;;;;;;10.48;2.15;;;19.90;99.90;;;;;;5026942;28;20110;-79
2021/08/27 13:39:13;;;;;;;11.00;2.67;;;19.80;99.90;;;;;;5031677;28;20496;-78
2021/08/27 13:41:43;;;;;;;10.68;2.22;;;19.70;99.90;;;;;;5032325;28;20051;-80
2021/08/27 13:44:09;;;;;;;9.27;2.17;;;19.30;99.90;;;;;;5028357;28;20134;-79
2021/08/27 13:46:36;;;;;;;11.30;1.80;;;19.20;99.90;;;;;;5009534;28;20037;-80
2021/08/27 13:49:06;;;;;;;4.63;1.40;;;19.10;99.90;;;;;;5029292;28;20079;-78
2021/08/27 13:51:33;;;;;;;7.25;1.52;;;18.50;99.90;;;;;;5029334;28;20044;-78
2021/08/27 13:54:05;;;;;;;8.93;2.35;;;18.20;99.90;;;;;;5012387;28;20051;-79
2021/08/27 13:56:34;;;;;;;7.68;2.00;;;18.00;99.90;;;;;;5029672;28;20179;-81
2021/08/27 13:59:01;;;;;;;5.20;1.13;;;17.70;99.90;;;;;;5029983;28;20175;-80
2021/08/27 14:01:28;;;;;;;6.75;1.88;;;17.60;99.90;;;;;;5011175;28;20048;-80
2021/08/27 14:03:54;;;;;;;10.05;2.10;;;17.20;99.90;;;;;;5031832;28;20126;-80
2021/08/27 14:06:20;;;;;;;8.48;2.05;;;16.90;99.90;;;;;;5008467;28;20072;-80
2021/08/27 14:08:45;;;;;;;6.82;1.92;;;16.70;99.90;;;;;;5010106;28;20052;-80
2021/08/27 14:11:11;;;;;;;13.40;2.58;;;16.50;99.90;;;;;;5030977;28;20419;-80
2021/08/27 14:13:36;;;;;;;12.93;2.42;;;16.40;99.90;;;;;;5015268;28;20124;-80
2021/08/27 14:16:02;;;;;;;8.88;2.30;;;16.50;99.90;;;;;;5033523;28;20117;-80
2021/08/27 14:18:28;;;;;;;15.70;2.42;;;16.60;99.90;;;;;;5031071;28;20052;-80